createdAt,value
2023-03-15T14:01:00.719Z,0.50
2023-03-15T14:05:00.785Z,0.34
2023-03-15T14:09:00.677Z,0.34
2023-03-15T14:13:00.596Z,0.34
2023-03-15T14:17:05.678Z,0.45
2023-03-15T14:21:01.519Z,0.38
2023-03-15T14:25:00.472Z,0.56
2023-03-15T14:29:02.504Z,0.56
2023-03-15T14:33:00.461Z,0.54
2023-03-15T14:37:00.384Z,0.56
2023-03-15T14:41:00.339Z,0.58
2023-03-15T14:45:00.322Z,0.58
2023-03-15T14:49:00.315Z,0.60
2023-03-15T14:53:00.356Z,0.62
2023-03-15T14:57:00.401Z,0.64
2023-03-15T15:01:00.536Z,0.68
2023-03-15T15:05:00.376Z,0.69
2023-03-15T15:09:00.444Z,0.73
2023-03-15T15:13:06.538Z,0.73
2023-03-15T15:17:01.543Z,0.75
2023-03-15T15:21:00.439Z,0.76
2023-03-15T15:25:00.373Z,0.77
2023-03-15T15:29:00.347Z,0.79
2023-03-15T15:33:00.445Z,0.79
2023-03-15T15:37:00.445Z,0.82
2023-03-15T15:41:01.962Z,0.83
2023-03-15T15:45:00.710Z,0.85
2023-03-15T15:49:00.824Z,0.88
2023-03-15T15:53:00.992Z,0.87
2023-03-15T15:57:01.126Z,0.87
2023-03-15T16:01:01.320Z,0.90
2023-03-15T16:05:01.410Z,0.92
2023-03-15T16:09:01.998Z,0.93
2023-03-15T16:13:01.568Z,0.97
2023-03-15T16:17:01.538Z,0.99
2023-03-15T16:21:01.563Z,0.98
2023-03-15T16:25:03.980Z,1.00
2023-03-15T16:29:01.444Z,1.01
2023-03-15T16:33:01.501Z,1.04
2023-03-15T16:37:01.334Z,1.05
2023-03-15T16:41:01.984Z,1.05
2023-03-15T16:45:01.539Z,1.10
2023-03-15T16:49:02.033Z,1.07
2023-03-15T16:53:01.195Z,1.11
2023-03-15T16:57:01.195Z,1.14
2023-03-15T17:01:01.100Z,1.13
2023-03-15T17:05:01.245Z,1.15
2023-03-15T17:09:01.173Z,1.18
2023-03-15T17:13:01.155Z,1.18
2023-03-15T17:17:01.118Z,1.18
2023-03-15T17:21:01.502Z,1.19
2023-03-15T17:25:01.008Z,1.21
2023-03-15T17:29:01.055Z,1.23
2023-03-15T17:33:01.090Z,1.23
2023-03-15T17:37:00.951Z,1.27
2023-03-15T17:41:00.942Z,1.29
2023-03-15T17:45:00.827Z,1.31
2023-03-15T17:49:00.801Z,1.33
2023-03-15T17:53:00.944Z,1.32
2023-03-15T17:57:00.861Z,1.36
2023-03-15T18:01:00.853Z,1.37
2023-03-15T18:05:00.855Z,1.38
2023-03-15T18:09:00.776Z,1.39
2023-03-15T18:13:00.873Z,1.40
2023-03-15T18:17:00.653Z,1.39
2023-03-15T18:21:00.655Z,1.44
2023-03-15T18:25:00.594Z,1.42
2023-03-15T18:29:00.566Z,1.45
2023-03-15T18:33:00.610Z,1.46
2023-03-15T18:37:00.466Z,1.47
2023-03-15T18:41:00.435Z,1.47
2023-03-15T18:45:00.415Z,1.48
2023-03-15T18:49:00.360Z,1.47
2023-03-15T18:53:00.326Z,1.50
2023-03-15T18:57:00.301Z,1.49
2023-03-15T19:01:00.275Z,1.53
2023-03-15T19:05:00.218Z,1.52
2023-03-15T19:09:00.343Z,1.56
2023-03-15T19:13:01.606Z,1.59
2023-03-15T19:17:00.712Z,1.60
2023-03-15T19:21:00.798Z,1.58
2023-03-15T19:25:00.882Z,1.64
2023-03-15T19:29:01.543Z,1.63
2023-03-15T19:33:00.887Z,1.68
2023-03-15T19:37:00.872Z,1.67
2023-03-15T19:41:00.845Z,1.69
2023-03-15T19:45:00.813Z,1.72
2023-03-15T19:49:00.859Z,1.74
2023-03-15T19:53:00.848Z,1.71
2023-03-15T19:57:00.821Z,1.70
2023-03-15T20:01:00.877Z,1.73
2023-03-15T20:05:00.852Z,1.75
2023-03-15T20:09:00.921Z,1.77
2023-03-15T20:13:00.889Z,1.74
2023-03-15T20:17:00.968Z,1.78
2023-03-15T20:21:00.942Z,1.78
2023-03-15T20:25:01.021Z,1.84
2023-03-15T20:29:01.044Z,1.85
2023-03-15T20:33:01.089Z,1.85
2023-03-15T20:37:01.133Z,1.85
2023-03-15T20:41:01.152Z,1.87
2023-03-15T20:45:01.225Z,1.84
2023-03-15T20:49:02.129Z,1.88
2023-03-15T20:53:01.276Z,1.88
2023-03-15T20:57:01.300Z,1.90
2023-03-15T21:01:01.393Z,1.88
2023-03-15T21:05:01.382Z,1.87
2023-03-15T21:09:01.526Z,1.87
2023-03-15T21:13:01.500Z,1.91
2023-03-15T21:17:01.573Z,1.92
2023-03-15T21:21:01.762Z,1.91
2023-03-15T21:25:01.737Z,1.91
2023-03-15T21:29:01.785Z,1.90
2023-03-15T21:33:01.913Z,1.94
2023-03-15T21:37:02.077Z,1.94
2023-03-15T21:41:02.015Z,1.97
2023-03-15T21:45:02.125Z,2.01
2023-03-15T21:49:02.178Z,2.02
2023-03-15T21:53:02.174Z,2.02
2023-03-15T21:57:02.211Z,2.02
2023-03-15T22:01:03.114Z,2.04
2023-03-15T22:05:02.486Z,2.06
2023-03-15T22:09:02.422Z,2.03
2023-03-15T22:13:02.517Z,2.05
2023-03-15T22:17:02.623Z,2.04
2023-03-15T22:21:03.680Z,2.09
2023-03-15T22:25:02.680Z,2.10
2023-03-15T22:29:02.718Z,2.06
2023-03-15T22:33:02.887Z,2.07
2023-03-15T22:37:02.965Z,2.12
2023-03-15T22:41:02.884Z,2.11
2023-03-15T22:45:03.044Z,2.12
2023-03-15T22:49:03.089Z,2.09
2023-03-15T22:53:04.126Z,2.11
2023-03-15T22:57:03.374Z,2.11
2023-03-15T23:01:03.510Z,2.09
2023-03-15T23:05:03.724Z,2.12
2023-03-15T23:09:05.626Z,2.13
2023-03-15T23:13:03.761Z,2.12
2023-03-15T23:17:03.633Z,2.12
2023-03-15T23:21:03.592Z,2.13
2023-03-15T23:25:04.203Z,2.12
2023-03-15T23:29:03.464Z,2.14
2023-03-15T23:33:03.481Z,2.18
2023-03-15T23:37:03.461Z,2.15
2023-03-15T23:41:03.381Z,2.08
2023-03-15T23:45:03.668Z,2.09
2023-03-15T23:49:03.313Z,2.05
2023-03-15T23:53:03.298Z,2.06
2023-03-15T23:57:03.335Z,2.11
